Time;durP1;ratioP1;P1;durP2;ratioP2;P2;SDS_P1;SDS_P2;PMS_P1;PMS_P2;Temp;Humidity;BMP_temperature;BMP_pressure;BME280_temperature;BME280_humidity;BME280_pressure;Samples;Min_cycle;Max_cycle;Signal;HPM_P1;HPM_P2
2023/07/02 00:01:43;;;;;;;;;;;20.90;72.00;;;;;;4990448;28;1281;-72
2023/07/02 00:04:09;;;;;;;;;;;20.90;72.10;;;;;;4989498;28;870;-73
2023/07/02 00:06:40;;;;;;;;;;;20.90;72.10;;;;;;4989846;28;880;-72
2023/07/02 00:09:11;;;;;;;;;;;20.90;72.20;;;;;;4991442;28;1957;-72
2023/07/02 00:11:40;;;;;;;;;;;20.90;72.20;;;;;;4986643;28;1606;-72
2023/07/02 00:14:06;;;;;;;;;;;20.90;72.20;;;;;;4968032;28;1249;-72
2023/07/02 00:16:32;;;;;;;;;;;20.90;72.20;;;;;;4987778;28;1006;-72
2023/07/02 00:18:57;;;;;;;;;;;20.90;72.20;;;;;;4991044;28;870;-73
2023/07/02 00:21:27;;;;;;;;;;;20.90;72.30;;;;;;4988097;28;1264;-73
2023/07/02 00:23:54;;;;;;;;;;;20.90;72.30;;;;;;4987553;28;853;-72
2023/07/02 00:26:19;;;;;;;;;;;20.90;72.30;;;;;;4990488;28;841;-72
2023/07/02 00:28:45;;;;;;;;;;;20.90;72.30;;;;;;4986836;28;1974;-71
2023/07/02 00:31:10;;;;;;;;;;;20.90;72.30;;;;;;4984391;28;1242;-72
2023/07/02 00:33:36;;;;;;;;;;;20.90;72.40;;;;;;4990924;28;1043;-73
2023/07/02 00:36:01;;;;;;;;;;;20.90;72.40;;;;;;4988906;28;894;-74
2023/07/02 00:38:27;;;;;;;;;;;20.90;72.50;;;;;;4988074;28;821;-72
2023/07/02 00:40:52;;;;;;;;;;;20.90;72.50;;;;;;4984971;28;1309;-72
2023/07/02 00:43:18;;;;;;;;;;;20.90;73.30;;;;;;4981723;28;822;-72
2023/07/02 00:45:44;;;;;;;;;;;20.90;72.40;;;;;;4989282;28;995;-74
2023/07/02 00:48:09;;;;;;;;;;;20.90;72.40;;;;;;4990671;28;889;-74
2023/07/02 00:50:35;;;;;;;;;;;20.90;72.40;;;;;;4983815;28;1952;-74
2023/07/02 00:53:00;;;;;;;;;;;20.90;72.30;;;;;;4987203;28;848;-73
2023/07/02 00:55:26;;;;;;;;;;;20.90;72.30;;;;;;4984069;28;883;-73
2023/07/02 00:57:51;;;;;;;;;;;20.80;72.20;;;;;;4987893;28;946;-72
2023/07/02 01:00:17;;;;;;;;;;;20.90;72.20;;;;;;4986990;28;1338;-72
2023/07/02 01:02:46;;;;;;;;;;;20.90;72.20;;;;;;4987959;28;1363;-72
2023/07/02 01:05:14;;;;;;;;;;;20.90;72.10;;;;;;4991084;28;919;-73
2023/07/02 01:07:40;;;;;;;;;;;20.90;72.10;;;;;;4986034;28;900;-72
2023/07/02 01:10:06;;;;;;;;;;;20.90;72.00;;;;;;4986449;28;1891;-71
2023/07/02 01:12:31;;;;;;;;;;;20.90;72.00;;;;;;4985942;28;817;-71
2023/07/02 01:14:57;;;;;;;;;;;20.90;72.00;;;;;;4989718;28;857;-71
2023/07/02 01:17:23;;;;;;;;;;;20.90;72.00;;;;;;5000240;28;1010;-73
2023/07/02 01:19:52;;;;;;;;;;;20.90;71.90;;;;;;4990821;28;1264;-73
2023/07/02 01:22:22;;;;;;;;;;;20.90;71.90;;;;;;4974746;28;1281;-73
2023/07/02 01:24:48;;;;;;;;;;;20.90;71.90;;;;;;4983974;28;864;-73
2023/07/02 01:27:14;;;;;;;;;;;20.90;71.80;;;;;;4984563;28;1246;-73
2023/07/02 01:29:40;;;;;;;;;;;20.80;71.70;;;;;;4986765;28;1910;-73
2023/07/02 01:32:05;;;;;;;;;;;20.90;71.80;;;;;;4974573;28;1160;-72
2023/07/02 01:34:31;;;;;;;;;;;20.80;71.70;;;;;;4980705;28;895;-72
2023/07/02 01:36:56;;;;;;;;;;;20.90;71.70;;;;;;4988018;28;1015;-75
2023/07/02 01:39:22;;;;;;;;;;;20.90;71.70;;;;;;4989613;28;1347;-75
2023/07/02 01:41:54;;;;;;;;;;;20.90;71.60;;;;;;4986481;28;1326;-75
2023/07/02 01:44:19;;;;;;;;;;;20.90;71.50;;;;;;4983757;28;1074;-75
2023/07/02 01:46:48;;;;;;;;;;;20.90;71.50;;;;;;4987730;28;1015;-75
2023/07/02 01:49:17;;;;;;;;;;;20.90;71.50;;;;;;4987344;28;1959;-75
2023/07/02 01:51:55;;;;;;;;;;;20.90;71.40;;;;;;4985473;28;1312;-74
2023/07/02 01:54:21;;;;;;;;;;;20.90;71.40;;;;;;4985403;28;939;-74
2023/07/02 01:56:46;;;;;;;;;;;20.80;71.20;;;;;;4985058;28;1063;-74
2023/07/02 01:59:12;;;;;;;;;;;20.90;71.20;;;;;;4987502;28;971;-75
2023/07/02 02:01:40;;;;;;;;;;;20.90;71.20;;;;;;4989073;28;1203;-72
2023/07/02 02:04:06;;;;;;;;;;;20.90;71.20;;;;;;4981276;28;845;-71
2023/07/02 02:06:31;;;;;;;;;;;20.80;71.20;;;;;;4982261;28;904;-72
2023/07/02 02:08:57;;;;;;;;;;;20.80;71.00;;;;;;4986271;28;1923;-72
2023/07/02 02:11:25;;;;;;;;;;;20.90;71.00;;;;;;4983745;28;1241;-72
2023/07/02 02:13:50;;;;;;;;;;;20.80;70.90;;;;;;4981289;28;873;-72
2023/07/02 02:16:16;;;;;;;;;;;20.80;70.90;;;;;;4989307;28;1027;-72
2023/07/02 02:18:41;;;;;;;;;;;20.90;70.80;;;;;;4987421;28;867;-72
2023/07/02 02:21:07;;;;;;;;;;;20.90;70.80;;;;;;4989118;28;1268;-72
2023/07/02 02:23:34;;;;;;;;;;;20.80;70.70;;;;;;4982319;28;972;-71
2023/07/02 02:26:00;;;;;;;;;;;20.80;70.70;;;;;;4984763;28;900;-71
2023/07/02 02:28:25;;;;;;;;;;;20.80;70.70;;;;;;4989905;28;976;-70
2023/07/02 02:30:51;;;;;;;;;;;20.80;70.60;;;;;;4983534;28;1907;-70
2023/07/02 02:33:16;;;;;;;;;;;20.80;70.50;;;;;;4980119;28;801;-72
2023/07/02 02:35:42;;;;;;;;;;;20.80;70.50;;;;;;4982263;28;920;-70
2023/07/02 02:38:07;;;;;;;;;;;20.80;70.30;;;;;;4983948;28;923;-73
2023/07/02 02:40:33;;;;;;;;;;;20.80;70.30;;;;;;4989829;28;1311;-73
2023/07/02 02:42:58;;;;;;;;;;;20.80;70.30;;;;;;4988917;28;1448;-70
2023/07/02 02:45:24;;;;;;;;;;;20.80;70.30;;;;;;4988358;28;1330;-72
2023/07/02 02:47:49;;;;;;;;;;;20.80;70.20;;;;;;4987480;28;1376;-72
2023/07/02 02:50:15;;;;;;;;;;;20.80;70.10;;;;;;4984792;28;1906;-72
2023/07/02 02:52:40;;;;;;;;;;;20.80;70.10;;;;;;4990896;28;1321;-71
2023/07/02 02:55:06;;;;;;;;;;;20.80;70.10;;;;;;4989019;28;1270;-72
2023/07/02 02:57:32;;;;;;;;;;;20.80;70.00;;;;;;4986630;28;930;-72
2023/07/02 02:59:57;;;;;;;;;;;20.80;70.00;;;;;;4984309;28;1244;-72
2023/07/02 03:02:23;;;;;;;;;;;20.80;69.90;;;;;;4982294;28;832;-72
2023/07/02 03:04:49;;;;;;;;;;;20.80;69.90;;;;;;4985925;28;884;-72
2023/07/02 03:07:15;;;;;;;;;;;20.80;69.90;;;;;;4986875;28;896;-73
2023/07/02 03:09:40;;;;;;;;;;;20.80;69.90;;;;;;4982529;28;1962;-72
2023/07/02 03:12:06;;;;;;;;;;;20.80;69.90;;;;;;4982379;28;1633;-72
2023/07/02 03:14:31;;;;;;;;;;;20.80;69.80;;;;;;4983900;28;910;-72
2023/07/02 03:16:57;;;;;;;;;;;20.80;69.70;;;;;;4981474;28;1023;-73
2023/07/02 03:19:22;;;;;;;;;;;20.80;69.70;;;;;;4982077;28;1290;-72
2023/07/02 03:21:48;;;;;;;;;;;20.80;69.70;;;;;;4989095;28;867;-72
2023/07/02 03:24:13;;;;;;;;;;;20.80;69.70;;;;;;4988379;28;947;-72
2023/07/02 03:26:48;;;;;;;;;;;20.80;69.60;;;;;;4983933;28;813;-72
2023/07/02 03:29:13;;;;;;;;;;;20.80;69.60;;;;;;4982359;28;1969;-73
2023/07/02 03:31:39;;;;;;;;;;;20.80;69.70;;;;;;4986475;28;1210;-73
2023/07/02 03:34:06;;;;;;;;;;;20.80;69.70;;;;;;4983584;28;1311;-72
2023/07/02 03:36:31;;;;;;;;;;;20.80;69.60;;;;;;4987738;28;978;-72
2023/07/02 03:38:57;;;;;;;;;;;20.80;69.60;;;;;;4982098;28;826;-72
2023/07/02 03:41:23;;;;;;;;;;;20.80;69.60;;;;;;4982360;28;1257;-72
2023/07/02 03:43:48;;;;;;;;;;;20.80;69.70;;;;;;4985801;28;907;-72
2023/07/02 03:46:14;;;;;;;;;;;20.80;69.60;;;;;;4984242;28;861;-72
2023/07/02 03:48:39;;;;;;;;;;;20.80;69.60;;;;;;4979788;28;1961;-71
2023/07/02 03:51:05;;;;;;;;;;;20.80;69.60;;;;;;4982370;28;1296;-72
2023/07/02 03:53:30;;;;;;;;;;;20.80;69.60;;;;;;4980572;28;816;-72
2023/07/02 03:55:56;;;;;;;;;;;20.80;69.50;;;;;;4982231;28;999;-72
2023/07/02 03:58:21;;;;;;;;;;;20.80;69.50;;;;;;4981997;28;884;-72
2023/07/02 04:00:49;;;;;;;;;;;20.80;69.40;;;;;;4987500;28;1217;-72
2023/07/02 04:03:15;;;;;;;;;;;20.80;69.30;;;;;;4989294;28;946;-72
2023/07/02 04:05:40;;;;;;;;;;;20.80;69.20;;;;;;4989669;28;955;-72
2023/07/02 04:08:06;;;;;;;;;;;20.80;69.10;;;;;;4991273;28;1019;-72
2023/07/02 04:10:31;;;;;;;;;;;20.80;69.10;;;;;;4990287;28;1898;-72
2023/07/02 04:12:57;;;;;;;;;;;20.80;69.10;;;;;;4990937;28;884;-72
2023/07/02 04:15:24;;;;;;;;;;;20.80;69.10;;;;;;4989647;28;887;-72
2023/07/02 04:17:49;;;;;;;;;;;20.80;69.10;;;;;;4986462;28;907;-73
2023/07/02 04:20:15;;;;;;;;;;;20.80;69.10;;;;;;4981670;28;1293;-72
2023/07/02 04:22:40;;;;;;;;;;;20.80;69.00;;;;;;4989753;28;821;-72
2023/07/02 04:25:06;;;;;;;;;;;20.80;69.00;;;;;;4985374;28;874;-73
2023/07/02 04:27:31;;;;;;;;;;;20.80;68.90;;;;;;4985842;28;1528;-72
2023/07/02 04:29:57;;;;;;;;;;;20.80;68.90;;;;;;4986316;28;1898;-72
2023/07/02 04:32:22;;;;;;;;;;;20.80;68.80;;;;;;4989834;28;1041;-72
2023/07/02 04:34:48;;;;;;;;;;;20.80;68.80;;;;;;4990474;28;1273;-70
2023/07/02 04:37:15;;;;;;;;;;;20.80;68.80;;;;;;4988015;28;2086;-71
2023/07/02 04:39:40;;;;;;;;;;;20.80;68.80;;;;;;4989673;28;1307;-70
2023/07/02 04:42:06;;;;;;;;;;;20.80;68.80;;;;;;4991315;28;954;-70
2023/07/02 04:44:31;;;;;;;;;;;20.80;68.80;;;;;;4984552;28;1334;-70
2023/07/02 04:46:57;;;;;;;;;;;20.70;68.80;;;;;;4986742;28;928;-69
2023/07/02 04:49:23;;;;;;;;;;;20.80;68.80;;;;;;4983924;28;1911;-72
2023/07/02 04:51:48;;;;;;;;;;;20.80;68.80;;;;;;4986731;28;839;-72
2023/07/02 04:54:14;;;;;;;;;;;20.80;68.70;;;;;;4989967;28;946;-72
2023/07/02 04:56:39;;;;;;;;;;;20.80;68.70;;;;;;4989044;28;797;-72
2023/07/02 04:59:05;;;;;;;;;;;20.80;68.70;;;;;;4990424;28;856;-72
2023/07/02 05:01:30;;;;;;;;;;;20.80;68.70;;;;;;4989148;28;1280;-72
2023/07/02 05:03:55;;;;;;;;;;;20.80;68.70;;;;;;4988532;28;942;-72
2023/07/02 05:06:21;;;;;;;;;;;20.70;68.60;;;;;;4989179;28;1066;-73
2023/07/02 05:08:46;;;;;;;;;;;20.80;69.40;;;;;;4991254;28;1953;-72
2023/07/02 05:11:12;;;;;;;;;;;20.80;68.70;;;;;;4988802;28;1354;-72
2023/07/02 05:13:37;;;;;;;;;;;20.70;68.70;;;;;;4989248;28;1034;-73
2023/07/02 05:16:03;;;;;;;;;;;20.80;68.70;;;;;;4985654;28;1061;-71
2023/07/02 05:18:28;;;;;;;;;;;20.70;68.60;;;;;;4984700;28;873;-71
2023/07/02 05:20:54;;;;;;;;;;;20.80;68.70;;;;;;4986789;28;1257;-73
2023/07/02 05:23:19;;;;;;;;;;;20.70;68.60;;;;;;4989543;28;1045;-72
2023/07/02 05:25:45;;;;;;;;;;;20.80;68.60;;;;;;4986884;28;855;-72
2023/07/02 05:28:11;;;;;;;;;;;20.80;68.60;;;;;;4988327;28;1474;-71
2023/07/02 05:30:36;;;;;;;;;;;20.80;68.60;;;;;;4990912;28;1954;-71
2023/07/02 05:33:02;;;;;;;;;;;20.70;68.40;;;;;;4984786;28;812;-71
2023/07/02 05:35:27;;;;;;;;;;;20.80;68.40;;;;;;4987837;28;1026;-72
2023/07/02 05:37:53;;;;;;;;;;;20.80;68.30;;;;;;4986546;28;1172;-72
2023/07/02 05:40:18;;;;;;;;;;;20.70;68.20;;;;;;4981956;28;1350;-72
2023/07/02 05:42:44;;;;;;;;;;;20.80;68.20;;;;;;4984847;28;887;-71
2023/07/02 05:45:09;;;;;;;;;;;20.80;68.10;;;;;;4988907;28;780;-72
2023/07/02 05:47:35;;;;;;;;;;;20.80;68.00;;;;;;4973217;28;1519;-71
2023/07/02 05:50:00;;;;;;;;;;;20.80;67.90;;;;;;4990401;28;1968;-72
2023/07/02 05:52:26;;;;;;;;;;;20.70;67.70;;;;;;4986221;28;966;-72
2023/07/02 05:54:51;;;;;;;;;;;20.70;67.70;;;;;;4982217;28;805;-72
2023/07/02 05:57:17;;;;;;;;;;;20.70;67.70;;;;;;4988229;28;873;-71
2023/07/02 05:59:42;;;;;;;;;;;20.80;67.80;;;;;;4985405;28;1358;-72
2023/07/02 06:02:08;;;;;;;;;;;20.80;68.10;;;;;;4985425;28;916;-71
2023/07/02 06:04:33;;;;;;;;;;;20.80;68.10;;;;;;4985636;28;800;-71
2023/07/02 06:06:59;;;;;;;;;;;20.70;67.50;;;;;;4989606;28;1069;-70
2023/07/02 06:09:27;;;;;;;;;;;20.80;67.80;;;;;;4985851;28;1894;-69
2023/07/02 06:11:52;;;;;;;;;;;20.80;68.20;;;;;;4986063;28;868;-70
2023/07/02 06:14:18;;;;;;;;;;;20.70;68.10;;;;;;4987599;28;824;-71
2023/07/02 06:16:43;;;;;;;;;;;20.70;68.10;;;;;;4984023;28;908;-69
2023/07/02 06:19:09;;;;;;;;;;;20.80;68.00;;;;;;4983820;28;1615;-69
2023/07/02 06:21:34;;;;;;;;;;;20.70;67.70;;;;;;4986824;28;1210;-70
2023/07/02 06:24:01;;;;;;;;;;;20.70;67.80;;;;;;4988689;28;840;-70
2023/07/02 06:26:27;;;;;;;;;;;20.80;68.00;;;;;;4990165;28;832;-70
2023/07/02 06:28:52;;;;;;;;;;;20.70;68.00;;;;;;4983718;28;1902;-70
2023/07/02 06:31:18;;;;;;;;;;;20.80;68.00;;;;;;4987021;28;1265;-71
2023/07/02 06:33:43;;;;;;;;;;;20.80;67.90;;;;;;4982707;28;933;-71
2023/07/02 06:36:17;;;;;;;;;;;20.80;67.20;;;;;;4985965;28;848;-69
2023/07/02 06:38:43;;;;;;;;;;;20.80;67.20;;;;;;4985603;28;1233;-69
2023/07/02 06:41:08;;;;;;;;;;;20.70;67.00;;;;;;4984254;28;1264;-70
2023/07/02 06:43:34;;;;;;;;;;;20.70;66.90;;;;;;4987921;28;900;-70
2023/07/02 06:46:09;;;;;;;;;;;20.70;67.10;;;;;;4982323;28;919;-70
2023/07/02 06:48:35;;;;;;;;;;;20.70;66.80;;;;;;4980080;28;888;-69
2023/07/02 06:53:36;;;;;;;;;;;20.80;66.80;;;;;;5268463;23;1753;-70
2023/07/02 06:56:02;;;;;;;;;;;20.80;67.00;;;;;;4980933;28;1926;-70
2023/07/02 06:58:27;;;;;;;;;;;20.80;67.00;;;;;;4967829;28;1550;-69
2023/07/02 07:00:53;;;;;;;;;;;20.80;67.00;;;;;;4969081;28;1357;-69
2023/07/02 07:03:18;;;;;;;;;;;20.80;66.90;;;;;;4970536;28;1333;-70
2023/07/02 07:05:44;;;;;;;;;;;20.80;67.00;;;;;;4970265;28;899;-70
2023/07/02 07:08:09;;;;;;;;;;;20.80;66.80;;;;;;4967112;28;852;-69
2023/07/02 07:10:35;;;;;;;;;;;20.80;66.60;;;;;;4967301;28;1907;-70
2023/07/02 07:13:02;;;;;;;;;;;20.80;66.50;;;;;;4969045;28;1230;-68
2023/07/02 07:15:29;;;;;;;;;;;20.80;66.30;;;;;;4967271;28;828;-70
2023/07/02 07:17:55;;;;;;;;;;;20.80;65.80;;;;;;4984162;28;887;-69
2023/07/02 07:20:20;;;;;;;;;;;20.80;65.80;;;;;;4967792;28;2148;-69
2023/07/02 07:22:46;;;;;;;;;;;20.70;65.60;;;;;;4967358;28;1391;-69
2023/07/02 07:25:11;;;;;;;;;;;20.80;65.60;;;;;;4963217;28;1260;-69
2023/07/02 07:27:37;;;;;;;;;;;20.70;65.30;;;;;;4968509;28;1875;-69
2023/07/02 07:30:02;;;;;;;;;;;20.70;65.10;;;;;;4970700;28;1959;-69
2023/07/02 07:32:28;;;;;;;;;;;20.80;65.10;;;;;;4968807;28;1304;-69
2023/07/02 07:34:53;;;;;;;;;;;20.70;64.80;;;;;;4987076;28;866;-69
2023/07/02 07:37:19;;;;;;;;;;;20.70;64.80;;;;;;4972473;28;2107;-69
2023/07/02 07:39:44;;;;;;;;;;;20.80;64.90;;;;;;4971731;28;1785;-69
2023/07/02 07:42:09;;;;;;;;;;;20.80;65.10;;;;;;4972295;28;1426;-69
2023/07/02 07:44:35;;;;;;;;;;;20.80;64.90;;;;;;4972599;28;1649;-69
2023/07/02 07:47:00;;;;;;;;;;;20.80;65.10;;;;;;4973692;28;977;-69
2023/07/02 07:49:26;;;;;;;;;;;20.80;64.30;;;;;;4972520;28;1894;-70
2023/07/02 07:51:52;;;;;;;;;;;20.80;64.80;;;;;;4987912;28;1300;-71
2023/07/02 07:54:18;;;;;;;;;;;20.80;65.00;;;;;;4971998;28;921;-70
2023/07/02 07:56:43;;;;;;;;;;;20.80;65.00;;;;;;4970582;28;891;-69
2023/07/02 07:59:11;;;;;;;;;;;20.80;65.10;;;;;;4973038;28;1979;-69
2023/07/02 08:01:36;;;;;;;;;;;20.80;65.10;;;;;;4974698;28;1264;-69
2023/07/02 08:04:02;;;;;;;;;;;20.80;65.10;;;;;;4973018;28;1395;-69
2023/07/02 08:06:27;;;;;;;;;;;20.80;64.80;;;;;;4974253;28;844;-69
2023/07/02 08:08:52;;;;;;;;;;;20.80;64.80;;;;;;4974380;28;1910;-69
2023/07/02 08:11:18;;;;;;;;;;;20.80;64.90;;;;;;4974061;28;899;-69
2023/07/02 08:13:43;;;;;;;;;;;20.70;64.70;;;;;;4974156;28;1347;-69
2023/07/02 08:16:09;;;;;;;;;;;20.80;64.90;;;;;;4974088;28;868;-69
2023/07/02 08:18:35;;;;;;;;;;;20.80;64.90;;;;;;4972449;28;1329;-69
2023/07/02 08:21:00;;;;;;;;;;;20.70;64.70;;;;;;4971981;28;876;-69
2023/07/02 08:23:26;;;;;;;;;;;20.70;64.60;;;;;;4988092;28;2169;-69
2023/07/02 08:25:51;;;;;;;;;;;20.80;64.60;;;;;;4971291;28;1341;-69
2023/07/02 08:28:17;;;;;;;;;;;20.80;64.50;;;;;;4976798;28;1424;-69
2023/07/02 08:30:42;;;;;;;;;;;20.70;64.50;;;;;;4973843;28;1922;-69
2023/07/02 08:33:08;;;;;;;;;;;20.70;64.70;;;;;;4971571;28;1267;-69
2023/07/02 08:35:33;;;;;;;;;;;20.70;64.60;;;;;;4970985;28;908;-69
2023/07/02 08:37:58;;;;;;;;;;;20.70;64.40;;;;;;4972285;28;919;-69
2023/07/02 08:40:24;;;;;;;;;;;20.70;64.00;;;;;;4971704;28;918;-69
2023/07/02 08:42:49;;;;;;;;;;;20.70;63.70;;;;;;4970235;28;2106;-69
2023/07/02 08:45:16;;;;;;;;;;;20.70;63.60;;;;;;4970760;28;1621;-69
2023/07/02 08:47:42;;;;;;;;;;;20.70;63.70;;;;;;4970668;28;1431;-69
2023/07/02 08:50:08;;;;;;;;;;;20.70;63.10;;;;;;4972015;28;1958;-69
2023/07/02 08:52:33;;;;;;;;;;;20.70;62.80;;;;;;4972821;28;1307;-69
2023/07/02 08:54:59;;;;;;;;;;;20.70;63.40;;;;;;4972561;28;1042;-69
2023/07/02 08:57:24;;;;;;;;;;;20.70;63.20;;;;;;4971530;28;895;-69
2023/07/02 08:59:51;;;;;;;;;;;20.70;63.50;;;;;;4987315;28;1022;-69
2023/07/02 09:02:17;;;;;;;;;;;20.70;63.00;;;;;;4971764;28;1299;-69
2023/07/02 09:04:42;;;;;;;;;;;20.70;63.10;;;;;;4972856;28;1336;-69
2023/07/02 09:07:08;;;;;;;;;;;20.70;63.20;;;;;;4972370;28;1193;-69
2023/07/02 09:09:44;;;;;;;;;;;20.70;62.70;;;;;;4972521;28;1983;-69
2023/07/02 09:12:09;;;;;;;;;;;20.70;63.00;;;;;;4970092;28;1304;-69
2023/07/02 09:14:35;;;;;;;;;;;20.70;62.80;;;;;;4987055;28;940;-69
2023/07/02 09:17:10;;;;;;;;;;;20.70;62.80;;;;;;4972357;28;780;-69
2023/07/02 09:19:35;;;;;;;;;;;20.60;62.50;;;;;;4972191;28;902;-69
2023/07/02 09:22:01;;;;;;;;;;;20.70;62.60;;;;;;4972521;28;1328;-69
2023/07/02 09:24:27;;;;;;;;;;;20.70;62.20;;;;;;4972415;28;863;-69
2023/07/02 09:26:56;;;;;;;;;;;20.70;62.50;;;;;;4972001;28;891;-69
2023/07/02 09:29:23;;;;;;;;;;;20.70;62.50;;;;;;4970249;28;1886;-69
2023/07/02 09:31:48;;;;;;;;;;;20.70;62.50;;;;;;4972700;28;1208;-69
2023/07/02 09:34:14;;;;;;;;;;;20.70;62.60;;;;;;4972717;28;788;-70
2023/07/02 09:36:42;;;;;;;;;;;20.70;62.70;;;;;;4972658;28;812;-69
2023/07/02 09:39:11;;;;;;;;;;;20.70;62.10;;;;;;4972597;28;1198;-70
2023/07/02 09:41:37;;;;;;;;;;;20.60;62.10;;;;;;4974356;28;1710;-69
2023/07/02 09:44:02;;;;;;;;;;;20.70;62.30;;;;;;4966404;28;1218;-69
2023/07/02 09:46:28;;;;;;;;;;;20.60;62.30;;;;;;4972652;28;950;-69
2023/07/02 09:48:53;;;;;;;;;;;20.60;62.70;;;;;;4970595;28;1890;-69
2023/07/02 09:51:19;;;;;;;;;;;20.60;62.40;;;;;;4987442;28;869;-69
2023/07/02 09:53:44;;;;;;;;;;;20.60;62.60;;;;;;4970757;28;1347;-69
2023/07/02 09:56:10;;;;;;;;;;;20.60;62.80;;;;;;4972442;28;875;-69
2023/07/02 09:58:35;;;;;;;;;;;20.60;62.80;;;;;;4971766;28;796;-69
2023/07/02 10:01:01;;;;;;;;;;;20.60;62.80;;;;;;4971855;28;876;-69
2023/07/02 10:03:30;;;;;;;;;;;20.70;62.90;;;;;;4985480;28;1346;-70
2023/07/02 10:06:07;;;;;;;;;;;20.60;62.80;;;;;;4971701;28;935;-70
2023/07/02 10:08:33;;;;;;;;;;;20.70;63.10;;;;;;4969342;28;821;-70
2023/07/02 10:11:09;;;;;;;;;;;20.70;63.10;;;;;;4972182;28;1934;-71
2023/07/02 10:13:34;;;;;;;;;;;20.70;62.90;;;;;;4969450;28;1321;-70
2023/07/02 10:16:06;;;;;;;;;;;20.60;62.70;;;;;;4969651;28;876;-71
2023/07/02 10:18:31;;;;;;;;;;;20.70;62.60;;;;;;4986470;28;860;-71
2023/07/02 10:20:56;;;;;;;;;;;20.70;62.40;;;;;;4970069;28;1300;-70
2023/07/02 10:23:42;;;;;;;;;;;20.70;62.40;;;;;;4970602;28;1253;-70
2023/07/02 10:26:13;;;;;;;;;;;20.70;62.60;;;;;;4970409;28;1065;-70
2023/07/02 10:28:38;;;;;;;;;;;20.70;62.20;;;;;;4969742;28;2019;-71
2023/07/02 10:31:04;;;;;;;;;;;20.70;62.60;;;;;;4968956;28;2088;-73
2023/07/02 10:33:29;;;;;;;;;;;20.80;62.80;;;;;;4969534;28;1362;-73
2023/07/02 10:35:55;;;;;;;;;;;20.70;62.60;;;;;;4971842;28;879;-72
2023/07/02 10:38:21;;;;;;;;;;;20.70;62.70;;;;;;4971871;28;879;-74
2023/07/02 10:40:46;;;;;;;;;;;20.80;62.30;;;;;;4968976;28;1332;-73
2023/07/02 10:43:12;;;;;;;;;;;20.80;62.50;;;;;;4971294;28;1265;-73
2023/07/02 10:45:37;;;;;;;;;;;20.80;62.60;;;;;;4985650;28;1038;-73
2023/07/02 10:48:04;;;;;;;;;;;20.80;63.00;;;;;;4969921;28;994;-74
2023/07/02 10:50:30;;;;;;;;;;;20.80;63.00;;;;;;4970335;28;1886;-72
2023/07/02 10:52:55;;;;;;;;;;;20.80;62.90;;;;;;4983080;28;1271;-73
2023/07/02 10:55:21;;;;;;;;;;;20.80;62.70;;;;;;4964526;28;865;-73
2023/07/02 10:57:47;;;;;;;;;;;20.80;62.90;;;;;;4969888;28;855;-72
2023/07/02 11:00:13;;;;;;;;;;;20.80;63.10;;;;;;4969868;28;958;-73
2023/07/02 11:02:39;;;;;;;;;;;20.80;63.00;;;;;;4969931;28;1279;-73
2023/07/02 11:05:06;;;;;;;;;;;20.80;63.20;;;;;;4986382;28;855;-72
2023/07/02 11:07:32;;;;;;;;;;;20.80;63.00;;;;;;4985849;28;1765;-73
2023/07/02 11:09:58;;;;;;;;;;;20.80;63.00;;;;;;4989397;28;1989;-73
2023/07/02 11:12:29;;;;;;;;;;;20.80;63.30;;;;;;4975039;28;1653;-73
2023/07/02 11:14:55;;;;;;;;;;;20.80;63.30;;;;;;4974551;28;891;-73
2023/07/02 11:17:24;;;;;;;;;;;20.80;63.10;;;;;;4971622;28;885;-71
2023/07/02 11:19:50;;;;;;;;;;;20.80;62.60;;;;;;4972823;28;2198;-71
2023/07/02 11:22:15;;;;;;;;;;;20.80;62.10;;;;;;4987147;28;2257;-72
2023/07/02 11:24:41;;;;;;;;;;;20.90;61.70;;;;;;4974737;28;1259;-71
2023/07/02 11:27:06;;;;;;;;;;;20.90;61.20;;;;;;4973608;28;1349;-71
2023/07/02 11:29:33;;;;;;;;;;;20.90;60.50;;;;;;4975550;28;1968;-72
2023/07/02 11:32:04;;;;;;;;;;;20.90;60.60;;;;;;4974575;28;1246;-71
2023/07/02 11:34:30;;;;;;;;;;;20.90;59.90;;;;;;4975283;28;935;-71
2023/07/02 11:36:55;;;;;;;;;;;20.90;60.70;;;;;;4974994;28;928;-71
2023/07/02 11:39:21;;;;;;;;;;;20.90;59.90;;;;;;4975128;28;1006;-71
2023/07/02 11:41:47;;;;;;;;;;;20.90;59.10;;;;;;4970179;28;1501;-72
2023/07/02 11:44:13;;;;;;;;;;;20.90;58.60;;;;;;4974293;28;845;-72
2023/07/02 11:46:38;;;;;;;;;;;20.90;58.20;;;;;;4973426;28;810;-72
2023/07/02 11:49:04;;;;;;;;;;;21.00;58.00;;;;;;4989647;28;1899;-71
2023/07/02 11:51:30;;;;;;;;;;;21.00;57.90;;;;;;4989389;28;865;-71
2023/07/02 11:53:55;;;;;;;;;;;20.90;57.70;;;;;;4988364;28;1248;-72
2023/07/02 11:56:21;;;;;;;;;;;21.00;57.10;;;;;;4988324;28;896;-72
2023/07/02 11:58:46;;;;;;;;;;;21.00;57.30;;;;;;4974396;28;906;-72
2023/07/02 12:01:12;;;;;;;;;;;21.00;57.30;;;;;;4973380;28;876;-72
2023/07/02 12:03:37;;;;;;;;;;;21.00;57.60;;;;;;4971964;28;1263;-72
2023/07/02 12:06:03;;;;;;;;;;;21.00;57.60;;;;;;4974675;28;849;-72
2023/07/02 12:08:31;;;;;;;;;;;21.10;57.90;;;;;;4974155;28;820;-72
2023/07/02 12:10:56;;;;;;;;;;;21.00;57.60;;;;;;4979017;28;1915;-71
2023/07/02 12:13:22;;;;;;;;;;;21.10;57.50;;;;;;4970145;28;1270;-72
2023/07/02 12:15:47;;;;;;;;;;;21.10;57.90;;;;;;4977036;28;1224;-72
2023/07/02 12:18:13;;;;;;;;;;;21.10;57.70;;;;;;4972986;28;1275;-72
2023/07/02 12:20:41;;;;;;;;;;;21.10;57.60;;;;;;4972764;28;907;-71
2023/07/02 12:23:07;;;;;;;;;;;21.10;57.60;;;;;;4973504;28;1274;-72
2023/07/02 12:25:32;;;;;;;;;;;21.10;58.00;;;;;;4974014;28;844;-71
2023/07/02 12:27:57;;;;;;;;;;;21.00;58.40;;;;;;4973716;28;1371;-72
2023/07/02 12:30:23;;;;;;;;;;;21.10;58.40;;;;;;4972829;28;1997;-72
2023/07/02 12:32:48;;;;;;;;;;;21.00;58.30;;;;;;4973785;28;1261;-72
2023/07/02 12:35:14;;;;;;;;;;;21.10;58.00;;;;;;4975310;28;1364;-72
2023/07/02 12:37:46;;;;;;;;;;;21.00;57.30;;;;;;4974037;28;916;-72
2023/07/02 12:40:12;;;;;;;;;;;21.10;57.20;;;;;;4971225;28;888;-72
2023/07/02 12:42:37;;;;;;;;;;;21.00;56.80;;;;;;4988784;28;1372;-72
2023/07/02 12:45:03;;;;;;;;;;;21.10;56.30;;;;;;4972133;28;899;-71
2023/07/02 12:47:29;;;;;;;;;;;21.00;56.40;;;;;;4972581;28;961;-71
2023/07/02 12:49:54;;;;;;;;;;;21.10;56.40;;;;;;4973579;28;1898;-72
2023/07/02 12:52:20;;;;;;;;;;;21.00;56.00;;;;;;4973376;28;1281;-72
2023/07/02 12:54:45;;;;;;;;;;;21.00;56.20;;;;;;4973074;28;1034;-72
2023/07/02 12:57:11;;;;;;;;;;;21.10;55.80;;;;;;4972193;28;849;-71
2023/07/02 12:59:36;;;;;;;;;;;21.10;56.90;;;;;;4973557;28;968;-72
2023/07/02 13:02:02;;;;;;;;;;;21.10;56.70;;;;;;4973309;28;1267;-72
2023/07/02 13:04:28;;;;;;;;;;;21.10;56.90;;;;;;4972443;28;811;-72
2023/07/02 13:06:53;;;;;;;;;;;21.10;56.90;;;;;;4973516;28;1097;-72
2023/07/02 13:09:19;;;;;;;;;;;21.10;56.00;;;;;;4973175;28;1903;-72
2023/07/02 13:11:44;;;;;;;;;;;21.10;56.10;;;;;;4973257;28;1263;-72
2023/07/02 13:14:10;;;;;;;;;;;21.10;56.20;;;;;;4971855;28;1085;-71
2023/07/02 13:16:35;;;;;;;;;;;21.10;55.50;;;;;;4973933;28;867;-72
2023/07/02 13:19:02;;;;;;;;;;;21.10;54.60;;;;;;4972195;28;2144;-72
2023/07/02 13:21:27;;;;;;;;;;;21.10;54.80;;;;;;4971916;28;1247;-72
2023/07/02 13:23:53;;;;;;;;;;;21.10;55.00;;;;;;4980037;28;1344;-72
2023/07/02 13:26:19;;;;;;;;;;;21.20;55.10;;;;;;4971400;28;1199;-72
2023/07/02 13:28:47;;;;;;;;;;;21.10;54.70;;;;;;4972379;28;2053;-72
2023/07/02 13:31:13;;;;;;;;;;;21.10;54.20;;;;;;4969558;28;1968;-73
2023/07/02 13:33:39;;;;;;;;;;;21.20;53.80;;;;;;4970667;28;1532;-73
2023/07/02 13:36:04;;;;;;;;;;;21.10;52.90;;;;;;4969772;28;2115;-72
2023/07/02 13:38:30;;;;;;;;;;;21.20;52.90;;;;;;4970566;28;1432;-73
2023/07/02 13:40:55;;;;;;;;;;;21.20;53.20;;;;;;4968945;28;1924;-73
2023/07/02 13:43:21;;;;;;;;;;;21.20;53.10;;;;;;4970777;28;1284;-72
2023/07/02 13:45:46;;;;;;;;;;;21.20;53.20;;;;;;4971374;28;1246;-73
2023/07/02 13:48:12;;;;;;;;;;;21.20;53.00;;;;;;4972484;28;1637;-72
2023/07/02 13:50:37;;;;;;;;;;;21.20;53.60;;;;;;4969741;28;1906;-73
2023/07/02 13:53:03;;;;;;;;;;;21.20;52.80;;;;;;4970712;28;1233;-73
2023/07/02 13:55:30;;;;;;;;;;;21.20;53.10;;;;;;4972527;28;930;-73
2023/07/02 13:57:56;;;;;;;;;;;21.20;52.50;;;;;;4969749;28;856;-73
2023/07/02 14:00:23;;;;;;;;;;;21.20;52.40;;;;;;4967746;28;831;-73
2023/07/02 14:02:48;;;;;;;;;;;21.20;52.60;;;;;;4986121;28;1347;-72
2023/07/02 14:05:13;;;;;;;;;;;21.20;52.90;;;;;;4979606;28;1125;-72
2023/07/02 14:07:39;;;;;;;;;;;21.20;52.70;;;;;;4970925;28;1260;-72
2023/07/02 14:10:05;;;;;;;;;;;21.20;52.60;;;;;;4972275;28;1966;-73
2023/07/02 14:12:30;;;;;;;;;;;21.20;53.70;;;;;;4970269;28;1291;-73
2023/07/02 14:14:56;;;;;;;;;;;21.20;52.40;;;;;;4972199;28;895;-73
2023/07/02 14:17:21;;;;;;;;;;;21.20;52.10;;;;;;4972273;28;919;-72
2023/07/02 14:19:47;;;;;;;;;;;21.20;51.60;;;;;;4970012;28;1260;-72
2023/07/02 14:22:12;;;;;;;;;;;21.20;51.50;;;;;;4971789;28;1237;-72
2023/07/02 14:24:38;;;;;;;;;;;21.10;51.60;;;;;;4971943;28;840;-72
2023/07/02 14:27:03;;;;;;;;;;;21.10;51.90;;;;;;4970741;28;1399;-72
2023/07/02 14:29:29;;;;;;;;;;;21.10;52.40;;;;;;4960485;28;1898;-72
2023/07/02 14:31:54;;;;;;;;;;;21.10;51.90;;;;;;4970846;28;1330;-72